Time,TemperatureF,DewpointF,PressureIn,WindDirection,WindDirectionDegrees,WindSpeedMPH,WindSpeedGustMPH,Humidity,HourlyPrecipIn,Conditions,Clouds,dailyrainin,SolarRadiationWatts/m^2,SoftwareType,DateUTC
2013-09-03 00:05:00,59.2,51.3,29.85,ESE,110,0.0,0.0,75,0.00,,,0.00,0,Wunderground v.1.15,2013-09-03 07:05:00,
2013-09-03 00:15:00,58.7,50.8,29.86,ESE,110,0.0,0.0,75,0.00,,,0.00,0,Wunderground v.1.15,2013-09-03 07:15:00,
2013-09-03 00:25:00,58.4,50.5,29.86,ESE,110,0.0,0.0,75,0.00,,,0.00,0,Wunderground v.1.15,2013-09-03 07:25:00,
2013-09-03 00:30:00,58.3,50.8,29.86,ESE,110,0.0,0.0,76,0.00,,,0.00,0,Wunderground v.1.15,2013-09-03 07:30:00,
2013-09-03 00:40:00,58.0,50.5,29.87,ESE,110,0.0,0.0,76,0.00,,,0.00,0,Wunderground v.1.15,2013-09-03 07:40:00,
2013-09-03 00:50:00,57.8,50.6,29.87,ESE,110,0.0,0.0,77,0.00,,,0.00,0,Wunderground v.1.15,2013-09-03 07:50:00,
2013-09-03 00:55:00,57.6,50.4,29.87,ESE,110,0.0,0.0,77,0.00,,,0.00,0,Wunderground v.1.15,2013-09-03 07:55:00,
2013-09-03 01:05:00,57.3,50.5,29.87,ESE,110,0.0,0.0,78,0.00,,,0.00,0,Wunderground v.1.15,2013-09-03 08:05:00,
2013-09-03 01:15:00,57.2,50.4,29.88,ESE,110,0.0,0.0,78,0.00,,,0.00,0,Wunderground v.1.15,2013-09-03 08:15:00,
2013-09-03 01:25:00,56.9,50.5,29.88,ESE,110,0.0,0.0,79,0.00,,,0.00,0,Wunderground v.1.15,2013-09-03 08:25:00,
2013-09-03 01:35:00,56.7,50.6,29.88,ESE,110,0.0,0.0,80,0.00,,,0.00,0,Wunderground v.1.15,2013-09-03 08:35:00,
2013-09-03 01:40:00,56.6,50.5,29.88,ESE,110,0.0,0.0,80,0.00,,,0.00,0,Wunderground v.1.15,2013-09-03 08:40:00,
2013-09-03 01:50:00,56.5,50.4,29.88,ESE,110,0.0,0.0,80,0.00,,,0.00,0,Wunderground v.1.15,2013-09-03 08:50:00,
2013-09-03 02:00:00,56.2,50.1,29.88,ESE,110,0.0,0.0,80,0.00,,,0.00,0,Wunderground v.1.15,2013-09-03 09:00:00,
2013-09-03 02:10:00,55.9,50.2,29.88,ESE,110,0.0,0.0,81,0.00,,,0.00,0,Wunderground v.1.15,2013-09-03 09:10:00,
2013-09-03 02:20:00,55.7,50.0,29.88,ESE,110,0.0,0.0,81,0.00,,,0.00,0,Wunderground v.1.15,2013-09-03 09:20:00,
2013-09-03 02:30:00,55.6,49.9,29.88,ESE,110,0.0,0.0,81,0.00,,,0.00,0,Wunderground v.1.15,2013-09-03 09:30:00,
2013-09-03 02:40:00,55.3,49.9,29.88,ESE,110,0.0,0.0,82,0.00,,,0.00,0,Wunderground v.1.15,2013-09-03 09:40:00,
2013-09-03 02:50:00,55.3,49.9,29.89,ESE,110,0.0,0.0,82,0.00,,,0.00,0,Wunderground v.1.15,2013-09-03 09:50:00,
2013-09-03 02:55:00,55.1,50.0,29.88,ESE,110,0.0,0.0,83,0.00,,,0.00,0,Wunderground v.1.15,2013-09-03 09:55:00,
2013-09-03 03:05:00,55.1,50.0,29.88,ESE,110,0.0,0.0,83,0.00,,,0.00,0,Wunderground v.1.15,2013-09-03 10:05:00,
2013-09-03 03:10:00,55.1,50.0,29.88,ESE,110,0.0,0.0,83,0.00,,,0.00,0,Wunderground v.1.15,2013-09-03 10:10:00,
2013-09-03 03:20:00,55.0,49.9,29.88,ESE,110,0.0,0.0,83,0.00,,,0.00,0,Wunderground v.1.15,2013-09-03 10:20:00,
2013-09-03 03:30:00,55.0,49.9,29.87,ESE,110,0.0,0.0,83,0.00,,,0.00,0,Wunderground v.1.15,2013-09-03 10:30:00,
2013-09-03 03:35:00,55.0,49.9,29.87,ESE,110,0.0,0.0,83,0.00,,,0.00,0,Wunderground v.1.15,2013-09-03 10:35:00,
2013-09-03 03:45:00,54.8,49.7,29.87,ESE,110,0.0,0.0,83,0.00,,,0.00,0,Wunderground v.1.15,2013-09-03 10:45:00,
2013-09-03 03:55:00,54.8,49.7,29.87,ESE,110,0.0,0.0,83,0.00,,,0.00,0,Wunderground v.1.15,2013-09-03 10:55:00,
2013-09-03 04:05:00,55.1,50.4,29.88,ESE,110,0.0,0.0,84,0.00,,,0.00,0,Wunderground v.1.15,2013-09-03 11:05:00,
2013-09-03 04:15:00,55.9,50.8,29.88,ESE,110,0.0,0.0,83,0.00,,,0.00,0,Wunderground v.1.15,2013-09-03 11:15:00,
2013-09-03 04:25:00,56.3,51.2,29.87,ESE,110,0.0,0.0,83,0.00,,,0.00,0,Wunderground v.1.15,2013-09-03 11:25:00,
2013-09-03 04:30:00,56.5,51.1,29.87,ESE,110,0.0,0.0,82,0.00,,,0.00,0,Wunderground v.1.15,2013-09-03 11:30:00,
2013-09-03 04:35:00,56.6,50.8,29.87,ESE,110,0.0,0.0,81,0.00,,,0.00,0,Wunderground v.1.15,2013-09-03 11:35:00,
2013-09-03 04:45:00,56.7,50.9,29.86,ESE,110,0.0,0.0,81,0.00,,,0.00,0,Wunderground v.1.15,2013-09-03 11:45:00,
2013-09-03 04:50:00,56.7,50.9,29.87,ESE,110,0.0,0.0,81,0.00,,,0.00,0,Wunderground v.1.15,2013-09-03 11:50:00,
2013-09-03 05:00:00,56.9,51.1,29.87,ESE,110,0.0,0.0,81,0.00,,,0.00,0,Wunderground v.1.15,2013-09-03 12:00:00,
2013-09-03 05:10:00,56.7,50.9,29.87,ESE,110,0.0,0.0,81,0.00,,,0.00,0,Wunderground v.1.15,2013-09-03 12:10:00,
2013-09-03 05:20:00,56.9,51.1,29.88,ESE,110,0.0,0.0,81,0.00,,,0.00,0,Wunderground v.1.15,2013-09-03 12:20:00,
2013-09-03 05:30:00,56.7,50.9,29.88,ESE,110,0.0,0.0,81,0.00,,,0.00,0,Wunderground v.1.15,2013-09-03 12:30:00,
2013-09-03 05:40:00,56.7,50.6,29.87,ESE,110,0.0,0.0,80,0.00,,,0.00,0,Wunderground v.1.15,2013-09-03 12:40:00,
2013-09-03 05:50:00,56.7,50.9,29.87,ESE,110,0.0,0.0,81,0.00,,,0.00,0,Wunderground v.1.15,2013-09-03 12:50:00,
2013-09-03 06:00:00,56.6,50.8,29.88,ESE,110,0.0,0.0,81,0.00,,,0.00,0,Wunderground v.1.15,2013-09-03 13:00:00,
2013-09-03 06:10:00,56.6,50.8,29.89,ESE,110,0.0,0.0,81,0.00,,,0.00,0,Wunderground v.1.15,2013-09-03 13:10:00,
2013-09-03 06:20:00,56.6,50.8,29.88,ESE,110,0.0,0.0,81,0.00,,,0.00,0,Wunderground v.1.15,2013-09-03 13:20:00,
2013-09-03 06:30:00,56.6,50.8,29.88,ESE,110,0.0,0.0,81,0.00,,,0.00,0,Wunderground v.1.15,2013-09-03 13:30:00,
2013-09-03 06:40:00,56.6,51.2,29.88,ESE,110,0.0,0.0,82,0.00,,,0.00,0,Wunderground v.1.15,2013-09-03 13:40:00,
2013-09-03 06:50:00,56.6,51.2,29.89,ESE,110,0.0,0.0,82,0.00,,,0.00,0,Wunderground v.1.15,2013-09-03 13:50:00,
2013-09-03 06:55:00,56.6,51.2,29.89,ESE,110,0.0,0.0,82,0.00,,,0.00,5,Wunderground v.1.15,2013-09-03 13:55:00,
2013-09-03 07:05:00,56.5,51.1,29.90,ESE,110,0.0,0.0,82,0.00,,,0.00,14,Wunderground v.1.15,2013-09-03 14:05:00,
2013-09-03 07:15:00,56.5,51.1,29.91,ESE,110,0.0,0.0,82,0.00,,,0.00,12,Wunderground v.1.15,2013-09-03 14:15:00,
2013-09-03 07:25:00,56.3,50.9,29.91,ESE,110,0.0,0.0,82,0.00,,,0.00,19,Wunderground v.1.15,2013-09-03 14:25:00,
2013-09-03 07:30:00,56.2,51.1,29.91,ESE,110,0.0,0.0,83,0.00,,,0.00,19,Wunderground v.1.15,2013-09-03 14:30:00,
2013-09-03 07:35:00,56.2,51.1,29.91,ESE,110,0.0,0.0,83,0.00,,,0.00,14,Wunderground v.1.15,2013-09-03 14:35:00,
2013-09-03 07:45:00,56.3,51.5,29.91,ESE,110,0.0,0.0,84,0.00,,,0.00,23,Wunderground v.1.15,2013-09-03 14:45:00,
2013-09-03 07:55:00,56.6,51.8,29.91,ESE,110,0.0,0.0,84,0.00,,,0.00,35,Wunderground v.1.15,2013-09-03 14:55:00,
2013-09-03 08:05:00,57.3,52.8,29.92,ESE,110,0.0,0.0,85,0.00,,,0.00,53,Wunderground v.1.15,2013-09-03 15:05:00,
2013-09-03 08:15:00,58.3,53.5,29.92,ESE,110,0.0,0.0,84,0.00,,,0.00,47,Wunderground v.1.15,2013-09-03 15:15:00,
2013-09-03 08:25:00,58.9,53.4,29.92,ESE,110,0.0,0.0,82,0.00,,,0.00,62,Wunderground v.1.15,2013-09-03 15:25:00,
2013-09-03 08:35:00,59.6,54.4,29.92,ESE,110,0.0,0.0,83,0.00,,,0.00,62,Wunderground v.1.15,2013-09-03 15:35:00,
2013-09-03 08:45:00,60.1,54.9,29.93,ESE,110,0.0,0.0,83,0.00,,,0.00,51,Wunderground v.1.15,2013-09-03 15:45:00,
2013-09-03 08:55:00,60.5,55.3,29.92,ESE,110,0.0,0.0,83,0.00,,,0.00,77,Wunderground v.1.15,2013-09-03 15:55:00,
2013-09-03 09:00:00,60.7,55.5,29.92,ESE,110,0.0,0.0,83,0.00,,,0.00,63,Wunderground v.1.15,2013-09-03 16:00:00,
2013-09-03 09:05:00,61.2,56.0,29.92,ESE,110,0.0,0.0,83,0.00,,,0.00,53,Wunderground v.1.15,2013-09-03 16:05:00,
2013-09-03 09:15:00,62.1,54.8,29.92,ESE,110,0.0,0.0,77,0.00,,,0.00,118,Wunderground v.1.15,2013-09-03 16:15:00,
2013-09-03 09:25:00,63.7,54.5,29.92,ESE,110,0.0,0.0,72,0.00,,,0.00,179,Wunderground v.1.15,2013-09-03 16:25:00,
2013-09-03 09:35:00,66.3,54.6,29.91,ESE,110,0.0,0.0,66,0.00,,,0.00,179,Wunderground v.1.15,2013-09-03 16:35:00,
2013-09-03 09:45:00,68.4,54.0,29.90,ESE,122,0.0,1.0,60,0.00,,,0.00,585,Wunderground v.1.15,2013-09-03 16:45:00,
2013-09-03 09:55:00,69.8,54.4,29.89,ESE,122,0.0,0.0,58,0.00,,,0.00,422,Wunderground v.1.15,2013-09-03 16:55:00,
2013-09-03 10:05:00,69.8,54.4,29.89,ESE,122,0.0,0.0,58,0.00,,,0.00,156,Wunderground v.1.15,2013-09-03 17:05:00,
2013-09-03 10:15:00,69.8,54.4,29.89,ESE,122,0.0,0.0,58,0.00,,,0.00,120,Wunderground v.1.15,2013-09-03 17:15:00,
2013-09-03 10:25:00,69.9,54.0,29.89,ESE,122,0.0,0.0,57,0.00,,,0.00,118,Wunderground v.1.15,2013-09-03 17:25:00,
2013-09-03 10:35:00,70.1,54.6,29.89,ESE,122,0.0,0.0,58,0.00,,,0.00,160,Wunderground v.1.15,2013-09-03 17:35:00,
2013-09-03 10:45:00,71.3,53.8,29.88,SE,128,0.0,1.0,54,0.00,,,0.00,719,Wunderground v.1.15,2013-09-03 17:45:00,
2013-09-03 10:55:00,72.8,53.6,29.88,SE,128,0.0,0.0,51,0.00,,,0.00,670,Wunderground v.1.15,2013-09-03 17:55:00,
2013-09-03 11:05:00,73.7,53.3,29.88,SE,128,0.0,0.0,49,0.00,,,0.00,128,Wunderground v.1.15,2013-09-03 18:05:00,
2013-09-03 11:15:00,73.2,53.4,29.88,SE,128,0.0,1.0,50,0.00,,,0.00,141,Wunderground v.1.15,2013-09-03 18:15:00,
2013-09-03 11:25:00,73.0,54.3,29.89,SE,128,0.0,0.0,52,0.00,,,0.00,156,Wunderground v.1.15,2013-09-03 18:25:00,
2013-09-03 11:30:00,73.0,52.7,29.89,SE,127,0.0,0.0,49,0.00,,,0.00,183,Wunderground v.1.15,2013-09-03 18:30:00,
2013-09-03 11:40:00,73.2,54.0,29.89,East,98,0.0,0.0,51,0.00,,,0.00,186,Wunderground v.1.15,2013-09-03 18:40:00,
2013-09-03 11:45:00,73.2,54.0,29.88,East,98,0.0,0.0,51,0.00,,,0.00,181,Wunderground v.1.15,2013-09-03 18:45:00,
2013-09-03 11:50:00,73.2,54.0,29.88,ESE,123,0.0,0.0,51,0.00,,,0.00,232,Wunderground v.1.15,2013-09-03 18:50:00,
2013-09-03 12:00:00,74.6,54.2,29.88,ESE,118,0.0,0.0,49,0.00,,,0.00,195,Wunderground v.1.15,2013-09-03 19:00:00,
2013-09-03 12:10:00,76.3,55.7,29.87,East,81,0.0,1.0,49,0.00,,,0.00,160,Wunderground v.1.15,2013-09-03 19:10:00,
2013-09-03 12:20:00,77.0,54.6,29.86,East,98,0.0,0.0,46,0.00,,,0.00,148,Wunderground v.1.15,2013-09-03 19:20:00,
2013-09-03 12:25:00,76.8,54.5,29.86,East,98,0.0,0.0,46,0.00,,,0.00,125,Wunderground v.1.15,2013-09-03 19:25:00,
2013-09-03 12:35:00,76.3,54.0,29.86,ESE,108,0.0,0.0,46,0.00,,,0.00,142,Wunderground v.1.15,2013-09-03 19:35:00,
2013-09-03 12:40:00,76.5,54.2,29.86,East,86,0.0,1.0,46,0.00,,,0.00,155,Wunderground v.1.15,2013-09-03 19:40:00,
2013-09-03 12:50:00,78.6,54.2,29.85,ESE,123,0.0,0.0,43,0.00,,,0.00,109,Wunderground v.1.15,2013-09-03 19:50:00,
2013-09-03 13:00:00,80.3,53.8,29.85,South,177,0.0,1.0,40,0.00,,,0.00,132,Wunderground v.1.15,2013-09-03 20:00:00,
2013-09-03 13:10:00,81.1,53.8,29.85,ESE,105,1.0,1.0,39,0.00,,,0.00,185,Wunderground v.1.15,2013-09-03 20:10:00,
2013-09-03 13:20:00,81.6,53.5,29.85,ESE,118,1.0,1.0,38,0.00,,,0.00,768,Wunderground v.1.15,2013-09-03 20:20:00,
2013-09-03 13:30:00,82.4,55.0,29.85,East,84,0.0,0.0,39,0.00,,,0.00,536,Wunderground v.1.15,2013-09-03 20:30:00,
2013-09-03 13:40:00,83.0,54.8,29.84,ESE,116,1.0,3.0,38,0.00,,,0.00,53,Wunderground v.1.15,2013-09-03 20:40:00,
2013-09-03 13:50:00,83.2,54.2,29.84,East,101,1.0,1.0,37,0.00,,,0.00,84,Wunderground v.1.15,2013-09-03 20:50:00,
2013-09-03 14:00:00,82.6,52.9,29.84,SE,138,1.0,1.0,36,0.00,,,0.00,151,Wunderground v.1.15,2013-09-03 21:00:00,
2013-09-03 14:05:00,82.8,53.9,29.84,East,88,0.0,1.0,37,0.00,,,0.00,98,Wunderground v.1.15,2013-09-03 21:05:00,
2013-09-03 14:15:00,82.8,53.1,29.84,ESE,119,1.0,1.0,36,0.00,,,0.00,53,Wunderground v.1.15,2013-09-03 21:15:00,
2013-09-03 14:25:00,82.0,54.6,29.84,ESE,116,0.0,0.0,39,0.00,,,0.00,146,Wunderground v.1.15,2013-09-03 21:25:00,
2013-09-03 14:35:00,83.4,53.6,29.83,ESE,108,1.0,1.0,36,0.00,,,0.00,127,Wunderground v.1.15,2013-09-03 21:35:00,
2013-09-03 14:40:00,83.6,54.6,29.83,ESE,120,1.0,1.0,37,0.00,,,0.00,135,Wunderground v.1.15,2013-09-03 21:40:00,
2013-09-03 14:50:00,82.8,54.6,29.83,East,92,1.0,1.0,38,0.00,,,0.00,114,Wunderground v.1.15,2013-09-03 21:50:00,
2013-09-03 15:00:00,82.6,53.7,29.83,ESE,117,0.0,0.0,37,0.00,,,0.00,81,Wunderground v.1.15,2013-09-03 22:00:00,
2013-09-03 15:10:00,81.4,54.1,29.84,ESE,109,0.0,0.0,39,0.00,,,0.00,44,Wunderground v.1.15,2013-09-03 22:10:00,
2013-09-03 15:20:00,80.5,53.3,29.83,SE,143,0.0,0.0,39,0.00,,,0.00,104,Wunderground v.1.15,2013-09-03 22:20:00,
2013-09-03 15:25:00,81.4,53.4,29.83,ESE,110,0.0,1.0,38,0.00,,,0.00,418,Wunderground v.1.15,2013-09-03 22:25:00,
2013-09-03 15:35:00,82.4,54.2,29.83,SE,138,1.0,1.0,38,0.00,,,0.00,65,Wunderground v.1.15,2013-09-03 22:35:00,
2013-09-03 15:40:00,83.0,54.0,29.82,East,95,1.0,1.0,37,0.00,,,0.00,151,Wunderground v.1.15,2013-09-03 22:40:00,
2013-09-03 15:50:00,83.0,53.3,29.82,ESE,105,0.0,0.0,36,0.00,,,0.00,42,Wunderground v.1.15,2013-09-03 22:50:00,
2013-09-03 15:55:00,83.2,53.5,29.82,ESE,119,0.0,0.0,36,0.00,,,0.00,434,Wunderground v.1.15,2013-09-03 22:55:00,
2013-09-03 16:05:00,82.8,51.6,29.82,East,100,0.0,0.0,34,0.00,,,0.00,69,Wunderground v.1.15,2013-09-03 23:05:00,
2013-09-03 16:10:00,82.2,51.0,29.82,East,99,0.0,0.0,34,0.00,,,0.00,90,Wunderground v.1.15,2013-09-03 23:10:00,
2013-09-03 16:20:00,82.6,50.6,29.82,ESE,113,0.0,2.0,33,0.00,,,0.00,517,Wunderground v.1.15,2013-09-03 23:20:00,
2013-09-03 16:30:00,84.0,49.2,29.81,East,88,0.0,0.0,30,0.00,,,0.00,506,Wunderground v.1.15,2013-09-03 23:30:00,
2013-09-03 16:40:00,84.9,49.1,29.80,East,91,1.0,1.0,29,0.00,,,0.00,51,Wunderground v.1.15,2013-09-03 23:40:00,
2013-09-03 16:50:00,83.8,47.2,29.81,East,101,0.0,2.0,28,0.00,,,0.00,42,Wunderground v.1.15,2013-09-03 23:50:00,
2013-09-03 17:00:00,82.2,48.6,29.81,ESE,112,0.0,0.0,31,0.00,,,0.00,399,Wunderground v.1.15,2013-09-04 00:00:00,
2013-09-03 17:05:00,82.2,47.7,29.81,ESE,108,0.0,0.0,30,0.00,,,0.00,355,Wunderground v.1.15,2013-09-04 00:05:00,
2013-09-03 17:10:00,82.6,48.9,29.81,ESE,113,0.0,0.0,31,0.00,,,0.00,90,Wunderground v.1.15,2013-09-04 00:10:00,
2013-09-03 17:20:00,82.0,50.1,29.81,ESE,107,0.0,0.0,33,0.00,,,0.00,56,Wunderground v.1.15,2013-09-04 00:20:00,
2013-09-03 17:30:00,81.8,51.5,29.82,ESE,111,0.0,0.0,35,0.00,,,0.00,54,Wunderground v.1.15,2013-09-04 00:30:00,
2013-09-03 17:40:00,80.5,53.3,29.82,SW,234,0.0,1.0,39,0.00,,,0.00,42,Wunderground v.1.15,2013-09-04 00:40:00,
2013-09-03 17:50:00,78.6,52.9,29.83,West,262,2.0,2.0,41,0.00,,,0.00,23,Wunderground v.1.15,2013-09-04 00:50:00,
2013-09-03 18:00:00,76.7,53.1,29.84,West,259,3.0,4.0,44,0.00,,,0.00,23,Wunderground v.1.15,2013-09-04 01:00:00,
2013-09-03 18:10:00,75.6,52.8,29.85,WSW,254,3.0,3.0,45,0.00,,,0.00,9,Wunderground v.1.15,2013-09-04 01:10:00,
2013-09-03 18:15:00,75.3,52.5,29.86,WSW,254,2.0,3.0,45,0.00,,,0.00,11,Wunderground v.1.15,2013-09-04 01:15:00,
2013-09-03 18:25:00,74.9,52.7,29.86,WSW,252,3.0,5.0,46,0.00,,,0.00,12,Wunderground v.1.15,2013-09-04 01:25:00,
2013-09-03 18:30:00,74.6,52.4,29.87,West,263,3.0,3.0,46,0.00,,,0.00,14,Wunderground v.1.15,2013-09-04 01:30:00,
2013-09-03 18:35:00,74.2,52.7,29.88,West,269,3.0,6.0,47,0.00,,,0.00,12,Wunderground v.1.15,2013-09-04 01:35:00,
2013-09-03 18:45:00,73.5,53.2,29.89,SW,229,3.0,4.0,49,0.00,,,0.00,16,Wunderground v.1.15,2013-09-04 01:45:00,
2013-09-03 18:50:00,72.7,54.1,29.90,SW,229,3.0,5.0,52,0.00,,,0.00,9,Wunderground v.1.15,2013-09-04 01:50:00,
2013-09-03 19:00:00,70.8,54.3,29.91,WSW,256,4.0,6.0,56,0.00,,,0.00,9,Wunderground v.1.15,2013-09-04 02:00:00,
2013-09-03 19:10:00,69.9,54.0,29.91,NW,308,2.0,2.0,57,0.00,,,0.00,5,Wunderground v.1.15,2013-09-04 02:10:00,
2013-09-03 19:20:00,69.8,53.4,29.91,WNW,300,2.0,2.0,56,0.00,,,0.00,5,Wunderground v.1.15,2013-09-04 02:20:00,
2013-09-03 19:30:00,69.8,53.4,29.92,West,277,2.0,3.0,56,0.00,,,0.00,0,Wunderground v.1.15,2013-09-04 02:30:00,
2013-09-03 19:40:00,69.3,53.4,29.92,West,275,2.0,4.0,57,0.00,,,0.00,0,Wunderground v.1.15,2013-09-04 02:40:00,
2013-09-03 19:50:00,69.1,52.2,29.93,SW,219,3.0,3.0,55,0.00,,,0.00,0,Wunderground v.1.15,2013-09-04 02:50:00,
2013-09-03 20:00:00,68.9,53.0,29.93,WSW,247,2.0,2.0,57,0.00,,,0.00,0,Wunderground v.1.15,2013-09-04 03:00:00,
2013-09-03 20:10:00,68.8,52.5,29.92,WSW,238,2.0,4.0,56,0.00,,,0.00,0,Wunderground v.1.15,2013-09-04 03:10:00,
2013-09-03 20:20:00,68.8,52.0,29.92,West,271,1.0,1.0,55,0.00,,,0.00,0,Wunderground v.1.15,2013-09-04 03:20:00,
2013-09-03 20:30:00,69.3,51.4,29.93,NNW,344,1.0,1.0,53,0.00,,,0.00,0,Wunderground v.1.15,2013-09-04 03:30:00,
2013-09-03 20:40:00,69.6,51.7,29.93,North,9,1.0,1.0,53,0.00,,,0.00,0,Wunderground v.1.15,2013-09-04 03:40:00,
2013-09-03 20:45:00,69.4,52.5,29.94,WNW,303,1.0,3.0,55,0.00,,,0.00,0,Wunderground v.1.15,2013-09-04 03:45:00,
2013-09-03 20:55:00,68.9,52.1,29.94,West,278,1.0,3.0,55,0.00,,,0.00,0,Wunderground v.1.15,2013-09-04 03:55:00,
2013-09-03 21:05:00,69.1,51.8,29.93,North,360,1.0,5.0,54,0.00,,,0.00,0,Wunderground v.1.15,2013-09-04 04:05:00,
2013-09-03 21:15:00,69.1,51.2,29.94,SSW,213,2.0,4.0,53,0.00,,,0.00,0,Wunderground v.1.15,2013-09-04 04:15:00,
2013-09-03 21:25:00,68.8,51.5,29.93,SE,140,1.0,1.0,54,0.00,,,0.00,0,Wunderground v.1.15,2013-09-04 04:25:00,
2013-09-03 21:30:00,68.4,52.1,29.94,NNE,20,1.0,2.0,56,0.00,,,0.00,0,Wunderground v.1.15,2013-09-04 04:30:00,
2013-09-03 21:40:00,67.6,52.3,29.94,NNW,336,1.0,1.0,58,0.00,,,0.00,0,Wunderground v.1.15,2013-09-04 04:40:00,
2013-09-03 21:45:00,67.1,52.3,29.94,WNW,296,1.0,1.0,59,0.00,,,0.00,0,Wunderground v.1.15,2013-09-04 04:45:00,
2013-09-03 21:50:00,66.9,51.6,29.94,NNE,29,1.0,1.0,58,0.00,,,0.00,0,Wunderground v.1.15,2013-09-04 04:50:00,
2013-09-03 21:55:00,66.8,51.5,29.94,NNW,338,1.0,1.0,58,0.00,,,0.00,0,Wunderground v.1.15,2013-09-04 04:55:00,
2013-09-03 22:00:00,66.6,52.7,29.94,NNW,338,0.0,0.0,61,0.00,,,0.00,0,Wunderground v.1.15,2013-09-04 05:00:00,
2013-09-03 22:05:00,66.1,52.7,29.93,NNW,338,0.0,0.0,62,0.00,,,0.00,0,Wunderground v.1.15,2013-09-04 05:05:00,
2013-09-03 22:15:00,65.0,52.5,29.94,NNW,338,0.0,0.0,64,0.00,,,0.00,0,Wunderground v.1.15,2013-09-04 05:15:00,
2013-09-03 22:25:00,64.2,52.6,29.94,NE,38,0.0,0.0,66,0.00,,,0.00,0,Wunderground v.1.15,2013-09-04 05:25:00,
2013-09-03 22:35:00,63.7,52.5,29.94,NE,38,0.0,0.0,67,0.00,,,0.00,0,Wunderground v.1.15,2013-09-04 05:35:00,
2013-09-03 22:40:00,63.5,52.3,29.94,NE,38,0.0,0.0,67,0.00,,,0.00,0,Wunderground v.1.15,2013-09-04 05:40:00,
2013-09-03 22:50:00,62.9,52.2,29.95,NE,38,0.0,0.0,68,0.00,,,0.00,0,Wunderground v.1.15,2013-09-04 05:50:00,
2013-09-03 23:00:00,62.3,52.0,29.95,NE,38,0.0,0.0,69,0.00,,,0.00,0,Wunderground v.1.15,2013-09-04 06:00:00,
2013-09-03 23:05:00,62.0,51.7,29.95,NE,38,0.0,0.0,69,0.00,,,0.00,0,Wunderground v.1.15,2013-09-04 06:05:00,
2013-09-03 23:15:00,61.5,51.6,29.95,NE,38,0.0,0.0,70,0.00,,,0.00,0,Wunderground v.1.15,2013-09-04 06:15:00,
2013-09-03 23:25:00,61.0,51.5,29.96,NE,38,0.0,0.0,71,0.00,,,0.00,0,Wunderground v.1.15,2013-09-04 06:25:00,
2013-09-03 23:35:00,60.5,51.4,29.96,NE,38,0.0,0.0,72,0.00,,,0.00,0,Wunderground v.1.15,2013-09-04 06:35:00,
2013-09-03 23:40:00,60.2,51.1,29.96,NE,38,0.0,0.0,72,0.00,,,0.00,0,Wunderground v.1.15,2013-09-04 06:40:00,
2013-09-03 23:45:00,59.9,51.2,29.97,NE,38,0.0,0.0,73,0.00,,,0.00,0,Wunderground v.1.15,2013-09-04 06:45:00,
2013-09-03 23:55:00,59.6,51.3,29.97,NE,38,0.0,0.0,74,0.00,,,0.00,0,Wunderground v.1.15,2013-09-04 06:55:00,